Watertown, New York
Current Conditions -  °F | °C
As of 1:56 PM on Tuesday 27 Jan 2015 (Local Time) from KART Reporting Station
Clear Clear  
Wind Chill: -4°   Ceiling: Unl
Heat Index: 14°   Visibility: 10mi
Dew Point: -2°   Wind: 22mph
Humidity: 49%   Direction: 30°NNE
Pressure: 29.99"   Gusts: NA
Location:  43.98°N, 75.91°W
Report Text: KART 271856Z AUTO 03019KT 10SM CLR M10/M19 A2999 RMK AO2 SLP166 T11001189
Loading
Personal Weather Stations






























Interactive Weather Map New forecast layout! Learn more

10-Day Weather Forecast

Advertisements
Track Severe Weather on mobile